To NAV CANADA Home Page Login to a new session Search on AWWS site Feedback and Comments Disclaimer Vers la page française équivalente Tips FAQ What's new on the site To the Forecasts and Observations / NOTAM section To "File a Flight Plan" website Publications and other links Update of the User's profile FIC Telephone Numbers My Weather Data Folder Route Weather Data Regional Weather Data Local Weather Data To the Forecasts and Observations / NOTAM section
Request Generated 07/30/2016 at 11:07:28 UTC . Weather information available at that time is displayed.

METAR/TAF

MONCTON/GREATER MONCTON INTL/NB    

METAR CYQM 301100Z 33006KT 15SM FEW009 FEW030 18/16 A2991 RMK SF1SC1
SC TR SLP130 DENSITY ALT 600FT=
METAR CYQM 301000Z 31006KT 15SM FEW009 17/16 A2989 RMK SF1 SLP124
DENSITY ALT 500FT=
METAR CYQM 300900Z 34006KT 12SM OVC005 18/17 A2988 RMK SF8 SLP119
DENSITY ALT 600FT=

TAF CYQM 300538Z 3006/3106 VRB03KT P6SM BKN080 TEMPO 3006/3010 1/4SM
FG VV001
FM301300 31007KT P6SM FEW010 SCT040
FM302000 27010KT P6SM BKN050
BECMG 3100/3102 FEW050
RMK NXT FCST BY 301200Z=
Your time UTC time
Weather data provided by Environment Canada and NAV CANADA